Weather reports worldwide

Advertisment
Wick Airport, United Kingdom (2003075): temperature & dewpoint: 15.02.2018 17:00:00 - 21.02.2018 17:00:00 (GMT)Wick Airport, United Kingdom (2003075): wind speed: 15.02.2018 17:00:00 - 21.02.2018 17:00:00 (GMT)Wick Airport, United Kingdom (2003075): wind direction: 15.02.2018 17:00:00 - 21.02.2018 17:00:00 (GMT)Wick Airport, United Kingdom (2003075): visibility: 15.02.2018 17:00:00 - 21.02.2018 17:00:00 (GMT)
Date & Time tt [°C] td [°C] ff [km/h] ff [kn] dd vv [km]
21.02.2018 17:00:00 5,0 3,0 8 4 S 10
21.02.2018 16:00:00 6,0 4,0 8 4 S 10
21.02.2018 15:00:00 6,0 3,0 9 5 S 10
21.02.2018 14:00:00 7,0 3,0 9 5 S 10
21.02.2018 13:00:00 7,0 4,0 9 5 S 10
21.02.2018 12:00:00 8,0 4,0 2 1 - 10
21.02.2018 11:00:00 5,0 3,0 4 2 W 10
21.02.2018 10:00:00 2,0 1,0 4 2 W 10
21.02.2018 09:00:00 2,0 0,0 5 3 W 10
21.02.2018 08:00:00 1,0 0,0 5 3 W 10
21.02.2018 07:00:00 1,0 0,0 8 4 WNW 10
21.02.2018 06:00:00 1,0 0,0 5 3 W 10
21.02.2018 05:00:00 2,0 1,0 5 3 W 10
21.02.2018 04:00:00 1,0 0,0 9 5 WNW 10
21.02.2018 03:00:00 1,0 0,0 16 9 WNW 10
21.02.2018 02:00:00 1,0 0,0 13 7 W 10
21.02.2018 01:00:00 2,0 1,0 11 6 W 10
21.02.2018 00:00:00 1,0 1,0 11 6 W 10
20.02.2018 23:00:00 2,0 1,0 9 5 W 10
20.02.2018 22:00:00 1,0 1,0 9 5 W 10
20.02.2018 21:00:00 3,0 2,0 11 6 W 10
20.02.2018 20:00:00 3,0 2,0 11 6 W 10
20.02.2018 19:00:00 3,0 2,0 9 5 W 10
20.02.2018 18:00:00 4,0 3,0 5 3 W 10
20.02.2018 17:00:00 4,0 3,0 11 6 NW 10
20.02.2018 16:00:00 6,0 3,0 21 11 NNW 10
20.02.2018 15:00:00 8,0 5,0 26 14 NNW 10
20.02.2018 14:00:00 8,0 5,0 28 15 NW 10
20.02.2018 13:00:00 8,0 6,0 26 14 NW 10
20.02.2018 12:00:00 8,0 6,0 31 17 NW 10
20.02.2018 11:00:00 8,0 6,0 24 13 NW 10
20.02.2018 10:00:00 7,0 6,0 21 11 WNW 10
20.02.2018 09:00:00 4,0 4,0 13 7 NW 10
20.02.2018 08:00:00 4,0 3,0 18 10 WNW 9
20.02.2018 07:00:00 4,0 3,0 16 9 WNW 10
20.02.2018 06:00:00 - - - - - -
20.02.2018 05:00:00 - - - - - -
20.02.2018 04:00:00 - - - - - -
20.02.2018 03:00:00 - - - - - -
20.02.2018 02:00:00 - - - - - -
20.02.2018 01:00:00 - - - - - -
20.02.2018 00:00:00 - - - - - -
19.02.2018 23:00:00 - - - - - -
19.02.2018 22:00:00 - - - - - -
19.02.2018 21:00:00 - - - - - -
19.02.2018 20:00:00 6,0 6,0 11 6 S 3,0
19.02.2018 19:00:00 6,0 6,0 13 7 S 0,2
19.02.2018 18:00:00 6,0 6,0 15 8 SSE 0,2
19.02.2018 17:00:00 6,0 6,0 15 8 S 0,6
19.02.2018 16:00:00 6,0 6,0 13 7 SSE 4,0
19.02.2018 15:00:00 6,0 6,0 15 8 S 2,8
19.02.2018 14:00:00 6,0 6,0 13 7 S 2,8
19.02.2018 13:00:00 6,0 6,0 15 8 S 2,8
19.02.2018 12:00:00 6,0 6,0 15 8 SSE 2,7
19.02.2018 11:00:00 6,0 6,0 15 8 S 2,5
19.02.2018 10:00:00 6,0 6,0 13 7 SSE 2,9
19.02.2018 09:00:00 6,0 5,0 15 8 SSE 4,0
19.02.2018 08:00:00 6,0 5,0 11 6 S 3,9
19.02.2018 07:00:00 6,0 5,0 13 7 SSE 4,6
19.02.2018 06:00:00 6,0 5,0 13 7 SSE 7
19.02.2018 05:00:00 6,0 5,0 9 5 SSE 6
19.02.2018 04:00:00 5,0 5,0 9 5 SSE 8
19.02.2018 03:00:00 6,0 5,0 9 5 SSE 9
19.02.2018 02:00:00 5,0 5,0 11 6 SSE 10
19.02.2018 01:00:00 5,0 4,0 5 3 SSE 10
19.02.2018 00:00:00 5,0 4,0 9 5 SSE 10
18.02.2018 23:00:00 5,0 4,0 9 5 SSE 10
18.02.2018 22:00:00 5,0 4,0 9 5 SSE 10
18.02.2018 21:00:00 6,0 4,0 11 6 S 10
18.02.2018 20:00:00 6,0 4,0 13 7 SSE 10
18.02.2018 19:00:00 6,0 4,0 13 7 SSE 10
18.02.2018 18:00:00 5,0 3,0 9 5 S 10
18.02.2018 17:00:00 5,0 3,0 9 5 SSE 10
18.02.2018 16:00:00 6,0 3,0 9 5 S 10
18.02.2018 15:00:00 6,0 3,0 8 4 S 10
18.02.2018 14:00:00 6,0 3,0 8 4 S 10
18.02.2018 13:00:00 6,0 4,0 11 6 S 10
18.02.2018 12:00:00 5,0 3,0 8 4 S 10
18.02.2018 11:00:00 5,0 2,0 5 3 SSW 10
18.02.2018 10:00:00 3,0 1,0 5 3 SW 10
18.02.2018 09:00:00 2,0 1,0 2 1 - 10
18.02.2018 08:00:00 2,0 0,0 5 3 S 10
18.02.2018 07:00:00 2,0 0,0 5 3 SSW 10
18.02.2018 06:00:00 2,0 -1,0 4 2 SW 10
18.02.2018 05:00:00 2,0 -1,0 5 3 WSW 10
18.02.2018 04:00:00 2,0 0,0 4 2 W 10
18.02.2018 03:00:00 2,0 0,0 5 3 W 10
18.02.2018 02:00:00 2,0 -1,0 5 3 W 10
18.02.2018 01:00:00 2,0 0,0 5 3 W 10
18.02.2018 00:00:00 3,0 0,0 2 1 W 10
17.02.2018 23:00:00 2,0 0,0 11 6 W 10
17.02.2018 22:00:00 3,0 0,0 11 6 W 10
17.02.2018 21:00:00 2,0 0,0 8 4 WSW 10
17.02.2018 20:00:00 3,0 1,0 9 5 WSW 10
17.02.2018 19:00:00 2,0 0,0 9 5 WSW 10
17.02.2018 18:00:00 4,0 1,0 9 5 W 10
17.02.2018 17:00:00 5,0 1,0 15 8 W 10
17.02.2018 16:00:00 6,0 1,0 22 12 W 10
17.02.2018 15:00:00 7,0 1,0 22 12 W 10
17.02.2018 14:00:00 7,0 3,0 15 8 SW 10
17.02.2018 13:00:00 7,0 3,0 13 7 WSW 10
17.02.2018 12:00:00 6,0 3,0 11 6 SW 10
17.02.2018 11:00:00 6,0 3,0 16 9 SW 10
17.02.2018 10:00:00 5,0 3,0 18 10 SSW 10
17.02.2018 09:00:00 4,0 2,0 15 8 SSW 10
17.02.2018 08:00:00 4,0 2,0 13 7 SSW 10
17.02.2018 07:00:00 4,0 2,0 13 7 SSW 10
17.02.2018 06:00:00 4,0 2,0 13 7 SSW 10
17.02.2018 05:00:00 4,0 2,0 13 7 SSW 10
17.02.2018 04:00:00 5,0 3,0 13 7 SSW 10
17.02.2018 03:00:00 5,0 3,0 16 9 SSW 10
17.02.2018 02:00:00 6,0 3,0 24 13 S 10
17.02.2018 01:00:00 6,0 3,0 26 14 S 10
17.02.2018 00:00:00 6,0 3,0 29 16 S 10
16.02.2018 23:00:00 6,0 3,0 35 19 S 10
16.02.2018 22:00:00 6,0 3,0 31 17 S 10
16.02.2018 21:00:00 - - - - - -
16.02.2018 20:00:00 6,0 2,0 31 17 S 10
16.02.2018 19:00:00 6,0 2,0 26 14 S 10
16.02.2018 18:00:00 5,0 1,0 22 12 SSW 10
16.02.2018 17:00:00 5,0 2,0 22 12 SW 10
16.02.2018 16:00:00 6,0 2,0 18 10 SW 10
16.02.2018 15:00:00 6,0 2,0 21 11 SW 10
16.02.2018 14:00:00 6,0 2,0 15 8 SSW 10
16.02.2018 13:00:00 6,0 2,0 15 8 SW 10
16.02.2018 12:00:00 6,0 2,0 16 9 SW 10
16.02.2018 11:00:00 4,0 1,0 13 7 SW 10
16.02.2018 10:00:00 3,0 0,0 16 9 SW 10
16.02.2018 09:00:00 2,0 -1,0 16 9 WSW 10
16.02.2018 08:00:00 2,0 -1,0 9 5 WSW 10
16.02.2018 07:00:00 2,0 0,0 8 4 SW 10
16.02.2018 06:00:00 3,0 -1,0 15 8 WSW 10
16.02.2018 05:00:00 3,0 -1,0 21 11 WSW 10
16.02.2018 04:00:00 3,0 0,0 24 13 WSW 10
16.02.2018 03:00:00 3,0 0,0 22 12 W 10
16.02.2018 02:00:00 3,0 0,0 8 4 WSW 10
16.02.2018 01:00:00 4,0 0,0 22 12 WSW 10
16.02.2018 00:00:00 4,0 1,0 24 13 WSW 10
15.02.2018 23:00:00 4,0 1,0 11 6 WSW 10
15.02.2018 22:00:00 3,0 1,0 9 5 WSW 10
15.02.2018 21:00:00 4,0 1,0 22 12 WSW 10
15.02.2018 20:00:00 4,0 2,0 22 12 W 10
15.02.2018 19:00:00 4,0 1,0 18 10 WSW 10
15.02.2018 18:00:00 4,0 1,0 22 12 SW 10
15.02.2018 17:00:00 5,0 2,0 22 12 WSW 10

tt = temperature
td = dewpoint
ff = wind speed
dd = wind direction
vv = visibility

Next stations